createdAt,value
2022-10-15T00:00:10.514Z,64.75
2022-10-15T00:02:42.436Z,64.69
2022-10-15T00:05:14.343Z,64.74
2022-10-15T00:07:46.157Z,64.89
2022-10-15T00:10:18.642Z,64.89
2022-10-15T00:12:50.812Z,64.96
2022-10-15T00:15:22.783Z,65.06
2022-10-15T00:17:54.915Z,64.79
2022-10-15T00:20:28.437Z,64.59
2022-10-15T00:25:49.837Z,64.58
2022-10-15T00:28:21.985Z,64.64
2022-10-15T00:30:54.231Z,64.50
2022-10-15T00:33:26.477Z,64.59
2022-10-15T00:36:03.438Z,64.54
2022-10-15T00:38:35.994Z,64.64
2022-10-15T00:41:10.377Z,64.78
2022-10-15T00:43:51.051Z,64.92
2022-10-15T00:46:25.895Z,64.96
2022-10-15T00:49:00.751Z,64.72
2022-10-15T00:51:35.679Z,64.39
2022-10-15T00:54:08.834Z,64.45
2022-10-15T00:56:42.796Z,64.42
2022-10-15T00:59:17.187Z,64.50
2022-10-15T01:01:50.379Z,64.66
2022-10-15T01:04:23.458Z,64.72
2022-10-15T01:06:55.691Z,64.77
2022-10-15T01:09:28.027Z,64.69
2022-10-15T01:12:00.195Z,64.78
2022-10-15T01:14:38.165Z,64.58
2022-10-15T01:17:41.761Z,64.70
2022-10-15T01:20:31.775Z,64.66
2022-10-15T01:23:16.998Z,64.81
2022-10-15T01:26:00.893Z,64.67
2022-10-15T01:29:01.332Z,64.46
2022-10-15T01:31:36.798Z,64.21
2022-10-15T01:34:34.197Z,64.29
2022-10-15T01:37:14.976Z,64.12
2022-10-15T01:39:50.412Z,64.31
2022-10-15T01:42:31.446Z,64.21
2022-10-15T01:45:06.510Z,64.42
2022-10-15T01:47:43.213Z,63.94
2022-10-15T01:50:17.943Z,63.65
2022-10-15T01:52:52.142Z,63.76
2022-10-15T01:55:26.583Z,63.62
2022-10-15T01:58:01.335Z,63.35
2022-10-15T02:00:33.359Z,63.60
2022-10-15T02:03:05.999Z,63.06
2022-10-15T02:05:40.983Z,63.02
2022-10-15T02:08:30.819Z,63.32
2022-10-15T02:11:08.509Z,63.27
2022-10-15T02:14:04.425Z,63.54
2022-10-15T02:16:45.919Z,63.18
2022-10-15T02:19:30.062Z,63.67
2022-10-15T02:22:24.598Z,63.76
2022-10-15T02:25:05.245Z,63.61
2022-10-15T02:27:38.571Z,63.76
2022-10-15T02:30:11.932Z,64.08
2022-10-15T02:32:46.184Z,63.96
2022-10-15T02:35:19.859Z,64.02
2022-10-15T02:37:55.026Z,64.10
2022-10-15T02:40:31.945Z,64.39
2022-10-15T02:43:07.152Z,64.41
2022-10-15T02:45:39.447Z,64.08
2022-10-15T02:48:11.472Z,64.22
2022-10-15T02:50:43.982Z,64.27
2022-10-15T02:53:17.605Z,64.47
2022-10-15T02:55:49.871Z,64.33
2022-10-15T02:58:22.313Z,64.67
2022-10-15T03:00:54.705Z,64.23
2022-10-15T03:03:26.812Z,64.54
2022-10-15T03:05:59.034Z,64.40
2022-10-15T03:08:31.213Z,64.33
2022-10-15T03:11:04.901Z,63.79
2022-10-15T03:13:41.377Z,64.18
2022-10-15T03:16:13.499Z,64.35
2022-10-15T03:18:46.088Z,64.04
2022-10-15T03:21:18.308Z,64.39
2022-10-15T03:23:50.869Z,64.15
2022-10-15T03:26:24.552Z,64.13
2022-10-15T03:28:56.516Z,64.04
2022-10-15T03:31:45.123Z,63.99
2022-10-15T03:34:17.234Z,63.76
2022-10-15T03:36:50.138Z,63.60
2022-10-15T03:39:22.421Z,63.92
2022-10-15T03:41:56.226Z,64.14
2022-10-15T03:44:29.767Z,63.81
2022-10-15T03:47:06.497Z,63.55
2022-10-15T03:49:40.018Z,63.82
2022-10-15T03:52:12.474Z,63.77
2022-10-15T03:54:45.256Z,63.83
2022-10-15T03:57:18.456Z,63.63
2022-10-15T03:59:52.031Z,63.50
2022-10-15T04:02:24.873Z,63.25
2022-10-15T04:04:57.605Z,63.35
2022-10-15T04:07:30.100Z,63.35
2022-10-15T04:10:01.964Z,62.91
2022-10-15T04:12:35.590Z,63.48
2022-10-15T04:15:08.115Z,63.01
2022-10-15T04:17:41.732Z,63.01
2022-10-15T04:20:14.046Z,62.87
2022-10-15T04:22:47.722Z,62.62
2022-10-15T04:25:20.048Z,62.41
2022-10-15T04:27:53.404Z,62.19
2022-10-15T04:30:25.477Z,62.24
2022-10-15T04:32:59.177Z,62.50
2022-10-15T04:35:31.750Z,62.85
2022-10-15T04:38:05.798Z,62.39
2022-10-15T04:41:05.414Z,61.97
2022-10-15T04:43:42.156Z,61.82
2022-10-15T04:46:14.930Z,61.21
2022-10-15T04:48:47.176Z,60.96
2022-10-15T04:51:21.687Z,60.98
2022-10-15T04:54:07.440Z,61.13
2022-10-15T04:56:40.356Z,60.56
2022-10-15T04:59:12.621Z,60.02
2022-10-15T05:01:46.824Z,59.71
2022-10-15T05:04:19.490Z,59.68
2022-10-15T05:06:51.536Z,59.55
2022-10-15T05:09:24.211Z,59.40
2022-10-15T05:11:56.412Z,59.55
2022-10-15T05:14:30.158Z,59.82
2022-10-15T05:17:09.495Z,59.79
2022-10-15T05:19:43.368Z,59.68
2022-10-15T05:22:16.994Z,59.73
2022-10-15T05:24:50.908Z,59.27
2022-10-15T05:27:32.381Z,59.49
2022-10-15T05:30:05.252Z,59.47
2022-10-15T05:32:38.858Z,59.17
2022-10-15T05:35:12.550Z,59.37
2022-10-15T05:38:01.621Z,59.23
2022-10-15T05:40:33.666Z,59.21
2022-10-15T05:43:10.159Z,58.88
2022-10-15T05:45:42.164Z,58.76
2022-10-15T05:48:15.193Z,58.49
2022-10-15T05:50:47.319Z,58.69
2022-10-15T05:53:21.198Z,58.37
2022-10-15T05:55:55.543Z,58.05
2022-10-15T05:58:33.345Z,58.08
2022-10-15T06:01:05.161Z,58.36
2022-10-15T06:03:37.730Z,57.47
2022-10-15T06:06:17.679Z,57.42
2022-10-15T06:08:50.585Z,57.35
2022-10-15T06:11:23.450Z,56.58
2022-10-15T06:13:55.702Z,56.60
2022-10-15T06:16:27.843Z,55.85
2022-10-15T06:18:59.992Z,55.58
2022-10-15T06:21:32.194Z,55.62
2022-10-15T06:24:06.339Z,55.39
2022-10-15T06:26:37.896Z,55.62
2022-10-15T06:29:10.973Z,55.51
2022-10-15T06:31:43.070Z,55.64
2022-10-15T06:34:15.231Z,55.59
2022-10-15T06:36:47.251Z,55.01
2022-10-15T06:39:19.157Z,55.22
2022-10-15T06:41:51.529Z,54.88
2022-10-15T06:44:23.983Z,54.47
2022-10-15T06:46:55.944Z,54.58
2022-10-15T06:49:28.147Z,54.80
2022-10-15T06:52:03.550Z,54.97
2022-10-15T06:54:34.215Z,54.69
2022-10-15T06:57:06.460Z,54.12
2022-10-15T06:59:41.258Z,54.42
2022-10-15T07:02:14.398Z,54.44
2022-10-15T07:04:47.059Z,54.47
2022-10-15T07:07:20.872Z,54.24
2022-10-15T07:09:54.659Z,53.94
2022-10-15T07:12:27.042Z,54.18
2022-10-15T07:14:59.207Z,54.12
2022-10-15T07:17:34.610Z,54.71
2022-10-15T07:20:07.994Z,54.64
2022-10-15T07:22:40.083Z,54.39
2022-10-15T07:25:12.298Z,54.18
2022-10-15T07:27:45.503Z,53.49
2022-10-15T07:30:17.755Z,53.89
2022-10-15T07:32:50.333Z,54.34
2022-10-15T07:35:23.229Z,53.79
2022-10-15T07:37:55.607Z,53.32
2022-10-15T07:40:28.146Z,52.78
2022-10-15T07:43:00.905Z,53.33
2022-10-15T07:45:36.507Z,52.13
2022-10-15T07:48:08.610Z,52.52
2022-10-15T07:50:42.366Z,52.65
2022-10-15T07:53:18.051Z,51.91
2022-10-15T07:55:48.652Z,51.73
2022-10-15T07:58:20.844Z,51.71
2022-10-15T08:00:52.803Z,51.00
2022-10-15T08:03:24.966Z,51.01
2022-10-15T08:05:57.041Z,51.56
2022-10-15T08:08:31.228Z,51.15
2022-10-15T08:11:14.641Z,50.79
2022-10-15T08:13:49.096Z,50.81
2022-10-15T08:16:20.532Z,50.36
2022-10-15T08:18:53.755Z,51.72
2022-10-15T08:21:25.988Z,50.15
2022-10-15T08:23:58.178Z,50.12
2022-10-15T08:26:31.844Z,50.13
2022-10-15T08:29:04.175Z,49.81
2022-10-15T08:31:36.115Z,49.99
2022-10-15T08:34:08.724Z,50.34
2022-10-15T08:36:40.606Z,49.95
2022-10-15T08:39:12.785Z,49.74
2022-10-15T08:41:48.338Z,49.16
2022-10-15T08:44:41.432Z,49.31
2022-10-15T08:47:30.994Z,49.33
2022-10-15T08:50:05.899Z,48.96
2022-10-15T08:52:47.060Z,48.03
2022-10-15T08:55:22.312Z,48.06
2022-10-15T08:58:08.206Z,47.37
2022-10-15T09:00:46.445Z,46.97
2022-10-15T09:03:37.921Z,47.41
2022-10-15T09:06:15.985Z,47.27
2022-10-15T09:09:09.102Z,47.68
2022-10-15T09:11:47.485Z,47.20
2022-10-15T09:14:22.617Z,47.25
2022-10-15T09:16:55.119Z,47.19
2022-10-15T09:19:29.655Z,46.69
2022-10-15T09:22:03.330Z,46.56
2022-10-15T09:24:35.535Z,45.96
2022-10-15T09:27:13.173Z,46.25
2022-10-15T09:29:54.876Z,46.05
2022-10-15T09:32:32.652Z,46.00
2022-10-15T09:35:15.308Z,46.07
2022-10-15T09:37:56.187Z,46.33
2022-10-15T09:40:36.688Z,46.16
2022-10-15T09:43:10.321Z,46.20
2022-10-15T09:45:42.599Z,46.74
2022-10-15T09:48:20.027Z,46.73
2022-10-15T09:50:58.183Z,47.08
2022-10-15T09:53:33.349Z,47.30
2022-10-15T09:56:08.863Z,47.65
2022-10-15T09:58:49.580Z,47.33
2022-10-15T10:01:26.502Z,47.32
2022-10-15T10:04:16.480Z,46.80
2022-10-15T10:06:51.513Z,46.45
2022-10-15T10:09:27.481Z,46.98
2022-10-15T10:12:03.767Z,46.99
2022-10-15T10:14:44.165Z,47.32
2022-10-15T10:17:19.109Z,47.00
2022-10-15T10:20:10.244Z,47.01
2022-10-15T10:22:51.270Z,47.27
2022-10-15T10:25:34.041Z,46.79
2022-10-15T10:28:14.549Z,47.03
2022-10-15T10:31:03.464Z,46.79
2022-10-15T10:33:50.154Z,47.13
2022-10-15T10:36:39.487Z,47.31
2022-10-15T10:39:15.498Z,47.87
2022-10-15T10:42:00.737Z,47.81
2022-10-15T10:44:38.694Z,48.12
2022-10-15T10:47:14.071Z,47.90
2022-10-15T10:49:48.190Z,47.97
2022-10-15T10:52:29.121Z,47.63
2022-10-15T10:55:16.356Z,47.71
2022-10-15T10:58:00.331Z,47.67
2022-10-15T11:00:44.927Z,48.09
2022-10-15T11:03:40.880Z,47.74
2022-10-15T11:06:29.233Z,48.00
2022-10-15T11:09:10.023Z,47.69
2022-10-15T11:11:48.444Z,47.84
2022-10-15T11:14:23.350Z,47.93
2022-10-15T11:17:33.299Z,47.78
2022-10-15T11:20:34.474Z,47.47
2022-10-15T11:23:27.289Z,47.93
2022-10-15T11:26:27.156Z,46.93
2022-10-15T11:29:18.462Z,46.53
2022-10-15T11:32:28.445Z,46.21
2022-10-15T11:35:20.227Z,45.56
2022-10-15T11:38:01.674Z,45.56
2022-10-15T11:40:57.559Z,45.11
2022-10-15T11:43:56.799Z,44.21
2022-10-15T11:46:57.193Z,43.97
2022-10-15T11:50:02.165Z,43.60
2022-10-15T11:52:55.368Z,43.77
2022-10-15T11:55:42.366Z,43.57
2022-10-15T11:58:29.197Z,43.90
2022-10-15T12:01:07.166Z,44.14
2022-10-15T12:03:42.152Z,43.91
2022-10-15T12:06:17.277Z,44.14
2022-10-15T12:08:51.173Z,43.96
2022-10-15T12:11:25.944Z,44.25
2022-10-15T12:14:16.144Z,44.46
2022-10-15T12:16:55.464Z,44.31
2022-10-15T12:19:32.223Z,43.61
2022-10-15T12:22:11.894Z,44.49
2022-10-15T12:24:51.761Z,44.36
2022-10-15T12:27:34.253Z,44.28
2022-10-15T12:30:11.121Z,43.89
2022-10-15T12:32:48.877Z,43.62
2022-10-15T12:35:27.148Z,42.58
2022-10-15T12:38:02.640Z,41.51
2022-10-15T12:40:36.716Z,39.32
2022-10-15T12:43:21.544Z,37.53
2022-10-15T12:45:56.413Z,37.58
2022-10-15T12:48:45.430Z,38.38
2022-10-15T12:51:29.099Z,39.85
2022-10-15T12:54:02.790Z,41.55
2022-10-15T12:56:41.815Z,41.93
2022-10-15T12:59:34.444Z,42.82
2022-10-15T13:02:09.755Z,41.17
2022-10-15T13:04:43.112Z,40.94
2022-10-15T13:07:16.406Z,41.55
2022-10-15T13:09:49.293Z,41.84
2022-10-15T13:12:29.930Z,41.98
2022-10-15T13:15:06.209Z,42.49
2022-10-15T13:17:40.282Z,42.88
2022-10-15T13:20:31.703Z,42.83
2022-10-15T13:23:32.787Z,42.47
2022-10-15T13:26:23.789Z,40.87
2022-10-15T13:29:00.386Z,38.40
2022-10-15T13:31:35.127Z,38.26
2022-10-15T13:34:22.246Z,39.41
2022-10-15T13:36:56.677Z,39.41
2022-10-15T13:39:35.469Z,40.73
2022-10-15T13:42:08.703Z,41.97
2022-10-15T13:44:41.293Z,42.45
2022-10-15T13:47:35.398Z,43.46
2022-10-15T13:50:30.952Z,43.65
2022-10-15T13:53:12.457Z,44.99
2022-10-15T13:55:50.589Z,45.23
2022-10-15T13:58:34.952Z,45.97
2022-10-15T14:01:13.028Z,46.49
2022-10-15T14:03:50.395Z,47.22
2022-10-15T14:06:34.614Z,48.01
2022-10-15T14:09:27.449Z,48.66
2022-10-15T14:12:03.355Z,48.96
2022-10-15T14:14:45.153Z,49.38
2022-10-15T14:17:27.913Z,49.85
2022-10-15T14:20:27.491Z,50.08
2022-10-15T14:22:37.249Z,50.66
2022-10-15T14:27:46.770Z,51.78
2022-10-15T14:30:30.719Z,51.82
2022-10-15T14:33:03.262Z,52.34
2022-10-15T14:35:37.721Z,52.62
2022-10-15T14:38:15.483Z,53.21
2022-10-15T14:41:07.436Z,53.23
2022-10-15T14:43:39.922Z,53.52
2022-10-15T14:46:14.774Z,53.92
2022-10-15T14:48:46.902Z,54.15
2022-10-15T14:51:21.686Z,54.65
2022-10-15T14:53:54.964Z,54.97
2022-10-15T14:56:29.886Z,56.08
2022-10-15T14:59:04.100Z,56.41
2022-10-15T15:01:36.636Z,56.38
2022-10-15T15:04:11.967Z,56.88
2022-10-15T15:06:44.162Z,57.09
2022-10-15T15:09:16.500Z,57.14
2022-10-15T15:11:48.798Z,57.80
2022-10-15T15:14:25.781Z,58.34
2022-10-15T15:16:57.713Z,58.60
2022-10-15T15:19:29.935Z,58.39
2022-10-15T15:22:02.353Z,58.65
2022-10-15T15:24:34.355Z,58.61
2022-10-15T15:27:06.569Z,58.56
2022-10-15T15:29:38.645Z,58.72
2022-10-15T15:32:11.577Z,59.14
2022-10-15T15:34:43.541Z,59.41
2022-10-15T15:37:18.347Z,59.27
2022-10-15T15:39:51.138Z,59.35
2022-10-15T15:42:25.958Z,59.69
2022-10-15T15:44:58.567Z,59.51
2022-10-15T15:47:30.886Z,59.60
2022-10-15T15:50:03.091Z,59.55
2022-10-15T15:52:36.685Z,59.55
2022-10-15T15:55:09.950Z,59.83
2022-10-15T15:57:42.350Z,59.96
2022-10-15T16:00:15.339Z,59.94
2022-10-15T16:02:47.395Z,60.31
2022-10-15T16:05:19.609Z,60.39
2022-10-15T16:07:51.805Z,60.47
2022-10-15T16:10:24.125Z,60.70
2022-10-15T16:12:56.542Z,60.81
2022-10-15T16:15:28.985Z,61.06
2022-10-15T16:18:01.152Z,60.85
2022-10-15T16:20:34.829Z,61.08
2022-10-15T16:23:07.010Z,61.28
2022-10-15T16:25:39.031Z,61.40
2022-10-15T16:28:11.224Z,61.50
2022-10-15T16:30:43.308Z,61.34
2022-10-15T16:33:15.209Z,61.69
2022-10-15T16:35:54.523Z,61.74
2022-10-15T16:38:26.557Z,61.57
2022-10-15T16:40:58.501Z,61.33
2022-10-15T16:43:30.611Z,61.40
2022-10-15T16:46:05.653Z,61.82
2022-10-15T16:48:38.722Z,61.75
2022-10-15T16:51:16.284Z,61.67
2022-10-15T16:53:49.168Z,61.83
2022-10-15T16:56:24.217Z,61.38
2022-10-15T16:58:57.207Z,61.61
2022-10-15T17:01:30.569Z,61.65
2022-10-15T17:04:03.072Z,61.60
2022-10-15T17:06:35.000Z,62.16
2022-10-15T17:09:07.228Z,62.09
2022-10-15T17:11:41.762Z,62.23
2022-10-15T17:14:15.623Z,62.38
2022-10-15T17:16:50.339Z,62.74
2022-10-15T17:19:28.899Z,62.59
2022-10-15T17:21:59.015Z,62.06
2022-10-15T17:24:31.217Z,61.90
2022-10-15T17:27:03.713Z,62.30
2022-10-15T17:29:35.856Z,62.18
2022-10-15T17:32:08.005Z,62.16
2022-10-15T17:34:39.957Z,63.02
2022-10-15T17:37:12.138Z,63.04
2022-10-15T17:39:44.122Z,62.34
2022-10-15T17:42:16.380Z,62.40
2022-10-15T17:44:48.453Z,62.85
2022-10-15T17:47:20.498Z,62.31
2022-10-15T17:49:52.507Z,62.25
2022-10-15T17:52:24.447Z,62.38
2022-10-15T17:54:56.641Z,61.60
2022-10-15T17:57:29.235Z,61.94
2022-10-15T18:00:01.300Z,61.98
2022-10-15T18:02:35.399Z,61.97
2022-10-15T18:05:08.055Z,61.42
2022-10-15T18:07:41.755Z,61.25
2022-10-15T18:10:14.831Z,60.61
2022-10-15T18:12:47.031Z,60.96
2022-10-15T18:15:19.321Z,60.76
2022-10-15T18:17:51.315Z,60.80
2022-10-15T18:20:24.256Z,60.08
2022-10-15T18:22:56.561Z,60.59
2022-10-15T18:25:30.370Z,60.07
2022-10-15T18:28:02.551Z,60.31
2022-10-15T18:30:36.003Z,60.08
2022-10-15T18:33:12.389Z,59.90
2022-10-15T18:35:44.497Z,59.48
2022-10-15T18:38:17.276Z,59.75
2022-10-15T18:40:49.292Z,58.96
2022-10-15T18:43:23.027Z,59.75
2022-10-15T18:45:55.190Z,58.75
2022-10-15T18:48:32.142Z,58.21
2022-10-15T18:51:01.507Z,58.61
2022-10-15T18:53:34.779Z,58.70
2022-10-15T18:56:07.639Z,59.13
2022-10-15T18:58:41.161Z,58.67
2022-10-15T19:01:27.988Z,58.92
2022-10-15T19:04:03.158Z,58.54
2022-10-15T19:06:38.181Z,58.55
2022-10-15T19:09:12.880Z,58.88
2022-10-15T19:11:46.998Z,58.61
2022-10-15T19:14:19.099Z,58.76
2022-10-15T19:16:51.717Z,59.27
2022-10-15T19:19:25.505Z,58.50
2022-10-15T19:21:59.481Z,58.72
2022-10-15T19:24:31.603Z,58.06
2022-10-15T19:27:03.809Z,57.14
2022-10-15T19:29:35.973Z,57.36
2022-10-15T19:32:08.017Z,57.17
2022-10-15T19:34:40.307Z,57.24
2022-10-15T19:37:12.268Z,57.58
2022-10-15T19:39:47.711Z,57.16
2022-10-15T19:42:20.268Z,56.92
2022-10-15T19:44:52.194Z,56.60
2022-10-15T19:47:26.024Z,56.87
2022-10-15T19:49:58.122Z,57.08
2022-10-15T19:52:30.112Z,56.69
2022-10-15T19:55:03.378Z,56.35
2022-10-15T19:57:35.027Z,56.18
2022-10-15T20:00:07.604Z,56.50
2022-10-15T20:02:41.415Z,56.88
2022-10-15T20:05:13.409Z,56.73
2022-10-15T20:07:45.489Z,56.77
2022-10-15T20:10:17.464Z,56.61
2022-10-15T20:12:49.458Z,56.73
2022-10-15T20:15:21.497Z,56.67
2022-10-15T20:17:53.330Z,55.90
2022-10-15T20:20:25.339Z,56.42
2022-10-15T20:22:57.205Z,56.31
2022-10-15T20:25:29.421Z,56.12
2022-10-15T20:28:01.257Z,56.03
2022-10-15T20:30:33.381Z,56.65
2022-10-15T20:33:05.439Z,56.60
2022-10-15T20:35:38.415Z,56.53
2022-10-15T20:38:10.524Z,56.38
2022-10-15T20:40:42.424Z,56.82
2022-10-15T20:43:14.402Z,56.48
2022-10-15T20:45:47.046Z,56.35
2022-10-15T20:48:22.407Z,56.25
2022-10-15T20:50:55.988Z,56.26
2022-10-15T20:53:30.144Z,56.54
2022-10-15T20:56:02.402Z,56.36
2022-10-15T20:58:34.471Z,55.86
2022-10-15T21:01:08.013Z,56.05
2022-10-15T21:03:40.007Z,56.58
2022-10-15T21:06:12.070Z,57.54
2022-10-15T21:08:44.062Z,57.67
2022-10-15T21:11:16.693Z,58.43
2022-10-15T21:13:49.033Z,58.00
2022-10-15T21:16:24.571Z,58.12
2022-10-15T21:18:55.734Z,58.10
2022-10-15T21:21:28.847Z,58.54
2022-10-15T21:24:00.844Z,58.83
2022-10-15T21:26:32.734Z,58.54
2022-10-15T21:29:05.229Z,58.88
2022-10-15T21:31:38.785Z,58.88
2022-10-15T21:34:10.832Z,59.28
2022-10-15T21:36:43.044Z,58.96
2022-10-15T21:39:14.941Z,58.76
2022-10-15T21:41:48.337Z,59.48
2022-10-15T21:44:20.286Z,59.20
2022-10-15T21:46:52.490Z,59.09
2022-10-15T21:49:24.622Z,58.97
2022-10-15T21:51:56.522Z,59.00
2022-10-15T21:54:28.480Z,58.90
2022-10-15T21:57:00.515Z,59.10
2022-10-15T21:59:32.712Z,59.03
2022-10-15T22:02:04.847Z,59.56
2022-10-15T22:04:37.083Z,59.00
2022-10-15T22:07:09.836Z,59.06
2022-10-15T22:09:41.798Z,58.64
2022-10-15T22:12:15.591Z,58.62
2022-10-15T22:14:47.411Z,58.79
2022-10-15T22:17:20.188Z,58.62
2022-10-15T22:19:52.355Z,59.02
2022-10-15T22:22:24.877Z,58.84
2022-10-15T22:24:58.489Z,59.05
2022-10-15T22:27:30.486Z,59.14
2022-10-15T22:30:02.702Z,59.38
2022-10-15T22:32:34.627Z,59.47
2022-10-15T22:35:06.746Z,59.63
2022-10-15T22:37:38.992Z,59.43
2022-10-15T22:40:12.480Z,59.46
2022-10-15T22:42:46.573Z,59.61
2022-10-15T22:45:19.117Z,59.71
2022-10-15T22:47:51.104Z,59.70
2022-10-15T22:50:23.253Z,60.04
2022-10-15T22:52:55.298Z,60.48
2022-10-15T22:55:28.792Z,60.49
2022-10-15T22:58:00.803Z,60.45
2022-10-15T23:00:32.834Z,60.60
2022-10-15T23:03:04.854Z,60.69
2022-10-15T23:05:53.679Z,60.51
2022-10-15T23:08:25.594Z,60.70
2022-10-15T23:10:57.527Z,60.95
2022-10-15T23:13:29.490Z,60.91
2022-10-15T23:16:08.550Z,60.93
2022-10-15T23:18:41.181Z,61.08
2022-10-15T23:21:16.234Z,61.13
2022-10-15T23:23:48.507Z,61.30
2022-10-15T23:26:20.695Z,61.43
2022-10-15T23:28:55.741Z,61.41
2022-10-15T23:31:30.169Z,61.62
2022-10-15T23:34:03.733Z,61.57
2022-10-15T23:36:35.723Z,61.73
2022-10-15T23:39:08.147Z,61.70
2022-10-15T23:41:40.049Z,61.96
2022-10-15T23:44:12.451Z,62.25
2022-10-15T23:46:44.427Z,62.47
2022-10-15T23:49:16.425Z,62.38
2022-10-15T23:51:48.620Z,62.55
2022-10-15T23:54:20.688Z,62.55
2022-10-15T23:56:53.059Z,62.54
2022-10-15T23:59:24.978Z,62.19
